Terminal Aerodrome Forecast
Issued by NWS Sterling, VA

Current Version | Previous Version | Text Only | Print | Product List | Glossary On
Versions: 1 2 3 4 5 6 7 8 9 10 11 12 13 14 15 16 17 18 19 20 21 22 23 24
480
FTUS41 KLWX 041120
TAFIAD
TAF
KIAD 041120Z 0412/0518 VRB03KT P6SM BKN200
     FM050200 VRB03KT 6SM -RA BR OVC050
     FM050600 16006KT 6SM -RA BR OVC008
     FM051200 19004KT P6SM BKN040
     FM051500 26004KT P6SM BKN060=

USA.gov is the U.S. government's official web portal to all federal, state and local government web resources and services.